createdAt,value
2018-09-26T00:00:18.275Z,99.99
2018-09-26T00:01:18.233Z,99.99
2018-09-26T00:02:18.212Z,99.99
2018-09-26T00:03:18.201Z,99.99
2018-09-26T00:04:18.169Z,99.99
2018-09-26T00:05:18.151Z,99.99
2018-09-26T00:06:18.129Z,99.99
2018-09-26T00:07:18.117Z,99.99
2018-09-26T00:08:18.178Z,99.99
2018-09-26T00:09:18.070Z,99.99
2018-09-26T00:10:18.050Z,99.99
2018-09-26T00:11:18.036Z,99.99
2018-09-26T00:12:18.006Z,99.99
2018-09-26T00:13:17.989Z,99.99
2018-09-26T00:14:17.968Z,99.99
2018-09-26T00:15:17.943Z,99.99
2018-09-26T00:16:17.922Z,99.99
2018-09-26T00:17:17.908Z,99.99
2018-09-26T00:18:17.881Z,99.99
2018-09-26T00:19:18.014Z,99.99
2018-09-26T00:20:17.838Z,99.99
2018-09-26T00:21:17.821Z,99.99
2018-09-26T00:22:17.800Z,99.99
2018-09-26T00:23:17.775Z,99.99
2018-09-26T00:24:17.756Z,99.99
2018-09-26T00:25:17.793Z,99.99
2018-09-26T00:26:17.712Z,99.99
2018-09-26T00:27:17.695Z,99.99
2018-09-26T00:28:17.670Z,99.99
2018-09-26T00:29:17.661Z,99.99
2018-09-26T00:30:17.634Z,99.99
2018-09-26T00:31:17.610Z,99.99
2018-09-26T00:32:17.588Z,99.99
2018-09-26T00:33:17.566Z,99.99
2018-09-26T00:34:17.547Z,99.99
2018-09-26T00:35:17.530Z,99.99
2018-09-26T00:36:17.622Z,99.99
2018-09-26T00:37:17.483Z,99.99
2018-09-26T00:38:17.464Z,99.99
2018-09-26T00:39:17.447Z,99.99
2018-09-26T00:40:17.420Z,99.99
2018-09-26T00:41:17.407Z,99.99
2018-09-26T00:42:17.381Z,99.99
2018-09-26T00:43:17.377Z,99.99
2018-09-26T00:44:17.367Z,99.99
2018-09-26T00:45:17.324Z,99.99
2018-09-26T00:46:17.299Z,99.99
2018-09-26T00:47:17.276Z,99.99
2018-09-26T00:48:17.266Z,99.99
2018-09-26T00:49:17.233Z,99.99
2018-09-26T00:50:17.217Z,99.99
2018-09-26T00:51:17.202Z,99.99
2018-09-26T00:52:17.176Z,99.99
2018-09-26T00:53:17.152Z,99.99
2018-09-26T00:54:17.138Z,99.99
2018-09-26T00:55:17.109Z,99.99
2018-09-26T00:56:17.089Z,99.99
2018-09-26T00:57:17.070Z,99.99
2018-09-26T00:58:17.045Z,99.99
2018-09-26T00:59:17.026Z,99.99
2018-09-26T01:00:17.004Z,99.99
2018-09-26T01:01:17.021Z,99.99
2018-09-26T01:02:16.964Z,99.99
2018-09-26T01:03:17.056Z,99.99
2018-09-26T01:04:16.920Z,99.99
2018-09-26T01:05:16.899Z,99.84
2018-09-26T01:06:16.879Z,99.99
2018-09-26T01:07:16.860Z,99.93
2018-09-26T01:08:16.836Z,99.27
2018-09-26T01:09:16.818Z,99.55
2018-09-26T01:10:16.796Z,99.74
2018-09-26T01:11:16.930Z,99.65
2018-09-26T01:12:16.758Z,99.46
2018-09-26T01:13:16.734Z,99.55
2018-09-26T01:14:16.774Z,99.17
2018-09-26T01:15:16.700Z,99.27
2018-09-26T01:16:16.680Z,99.74
2018-09-26T01:17:16.651Z,99.36
2018-09-26T01:18:16.630Z,99.84
2018-09-26T01:19:16.635Z,99.65
2018-09-26T01:20:16.592Z,99.65
2018-09-26T01:21:16.568Z,99.36
2018-09-26T01:22:16.555Z,99.36
2018-09-26T01:23:16.534Z,98.79
2018-09-26T01:24:16.506Z,98.79
2018-09-26T01:25:16.484Z,98.69
2018-09-26T01:26:16.463Z,98.98
2018-09-26T01:27:16.442Z,98.88
2018-09-26T01:28:16.418Z,98.69
2018-09-26T01:29:16.401Z,98.41
2018-09-26T01:30:16.385Z,98.22
2018-09-26T01:31:16.357Z,98.41
2018-09-26T01:32:16.337Z,98.13
2018-09-26T01:33:16.338Z,97.93
2018-09-26T01:34:16.295Z,97.93
2018-09-26T01:35:16.276Z,97.93
2018-09-26T01:36:16.300Z,98.22
2018-09-26T01:37:16.231Z,98.22
2018-09-26T01:38:16.212Z,98.32
2018-09-26T01:39:16.192Z,97.93
2018-09-26T01:40:16.171Z,97.74
2018-09-26T01:41:16.212Z,98.03
2018-09-26T01:42:16.126Z,97.17
2018-09-26T01:43:16.110Z,98.03
2018-09-26T01:44:16.087Z,97.55
2018-09-26T01:45:16.066Z,97.65
2018-09-26T01:46:16.045Z,97.36
2018-09-26T01:47:16.025Z,97.36
2018-09-26T01:48:16.005Z,96.79
2018-09-26T01:49:15.984Z,96.89
2018-09-26T01:50:15.962Z,96.70
2018-09-26T01:51:15.944Z,97.17
2018-09-26T01:52:15.920Z,97.17
2018-09-26T01:53:15.902Z,97.36
2018-09-26T01:54:15.882Z,97.36
2018-09-26T01:55:15.858Z,96.98
2018-09-26T01:56:15.835Z,97.17
2018-09-26T01:57:15.816Z,97.08
2018-09-26T01:58:15.794Z,97.36
2018-09-26T01:59:15.780Z,97.84
2018-09-26T02:00:15.760Z,97.74
2018-09-26T02:01:15.732Z,97.84
2018-09-26T02:02:15.709Z,97.93
2018-09-26T02:03:15.703Z,97.74
2018-09-26T02:04:15.673Z,98.22
2018-09-26T02:05:15.654Z,97.93
2018-09-26T02:06:15.738Z,98.13
2018-09-26T02:07:15.604Z,98.98
2018-09-26T02:08:15.583Z,98.88
2018-09-26T02:09:15.663Z,98.98
2018-09-26T02:10:15.543Z,98.88
2018-09-26T02:11:15.522Z,98.41
2018-09-26T02:12:15.499Z,98.69
2018-09-26T02:13:15.479Z,98.69
2018-09-26T02:14:15.460Z,98.69
2018-09-26T02:15:15.438Z,98.69
2018-09-26T02:16:15.413Z,98.32
2018-09-26T02:17:15.396Z,98.98
2018-09-26T02:18:15.375Z,98.50
2018-09-26T02:19:15.351Z,98.50
2018-09-26T02:20:15.332Z,98.41
2018-09-26T02:21:15.311Z,98.88
2018-09-26T02:22:15.289Z,98.79
2018-09-26T02:23:15.266Z,98.41
2018-09-26T02:24:15.248Z,98.88
2018-09-26T02:25:15.246Z,98.79
2018-09-26T02:26:15.202Z,98.69
2018-09-26T02:27:15.181Z,98.65
2018-09-26T02:28:15.239Z,98.65
2018-09-26T02:29:15.140Z,98.93
2018-09-26T02:30:15.121Z,98.88
2018-09-26T02:31:15.113Z,99.22
2018-09-26T02:32:15.077Z,99.22
2018-09-26T02:33:15.059Z,99.41
2018-09-26T02:34:15.037Z,99.22
2018-09-26T02:35:15.017Z,99.41
2018-09-26T02:36:14.998Z,99.22
2018-09-26T02:37:14.973Z,99.31
2018-09-26T02:38:14.951Z,99.31
2018-09-26T02:39:14.935Z,99.31
2018-09-26T02:40:14.913Z,99.22
2018-09-26T02:41:14.887Z,99.31
2018-09-26T02:42:14.867Z,99.12
2018-09-26T02:43:14.845Z,98.93
2018-09-26T02:44:14.828Z,99.02
2018-09-26T02:45:14.803Z,98.83
2018-09-26T02:46:14.790Z,98.74
2018-09-26T02:47:14.758Z,99.02
2018-09-26T02:48:14.736Z,98.55
2018-09-26T02:49:14.717Z,98.22
2018-09-26T02:50:14.697Z,98.46
2018-09-26T02:51:14.676Z,98.36
2018-09-26T02:52:14.656Z,98.60
2018-09-26T02:53:14.631Z,97.88
2018-09-26T02:54:14.617Z,98.17
2018-09-26T02:55:14.600Z,97.69
2018-09-26T02:56:14.576Z,97.79
2018-09-26T02:57:14.546Z,97.88
2018-09-26T02:58:14.646Z,97.50
2018-09-26T02:59:14.505Z,97.50
2018-09-26T03:00:14.486Z,97.31
2018-09-26T03:01:14.517Z,96.74
2018-09-26T03:02:14.440Z,97.46
2018-09-26T03:03:14.421Z,97.22
2018-09-26T03:04:14.398Z,97.27
2018-09-26T03:05:14.376Z,96.74
2018-09-26T03:06:14.355Z,96.46
2018-09-26T03:07:14.337Z,96.98
2018-09-26T03:08:14.335Z,96.79
2018-09-26T03:09:14.290Z,96.98
2018-09-26T03:10:14.279Z,96.60
2018-09-26T03:11:14.248Z,96.60
2018-09-26T03:12:14.227Z,96.51
2018-09-26T03:13:14.205Z,96.41
2018-09-26T03:14:14.187Z,96.41
2018-09-26T03:15:14.162Z,96.65
2018-09-26T03:16:14.140Z,96.03
2018-09-26T03:17:14.227Z,95.98
2018-09-26T03:18:14.100Z,96.55
2018-09-26T03:19:14.079Z,96.55
2018-09-26T03:20:14.122Z,96.55
2018-09-26T03:21:14.032Z,96.46
2018-09-26T03:22:14.013Z,96.74
2018-09-26T03:23:13.992Z,96.46
2018-09-26T03:24:13.972Z,96.55
2018-09-26T03:25:13.957Z,96.17
2018-09-26T03:26:13.926Z,96.17
2018-09-26T03:27:13.905Z,96.55
2018-09-26T03:28:13.883Z,96.26
2018-09-26T03:29:13.863Z,96.55
2018-09-26T03:30:13.844Z,96.46
2018-09-26T03:31:13.821Z,95.98
2018-09-26T03:32:13.798Z,95.89
2018-09-26T03:33:13.777Z,96.22
2018-09-26T03:34:13.764Z,96.03
2018-09-26T03:35:13.741Z,95.51
2018-09-26T03:36:13.712Z,95.70
2018-09-26T03:37:13.700Z,95.98
2018-09-26T03:38:13.674Z,96.74
2018-09-26T03:39:13.655Z,96.65
2018-09-26T03:40:13.624Z,96.26
2018-09-26T03:41:13.606Z,95.89
2018-09-26T03:42:13.592Z,96.46
2018-09-26T03:43:13.563Z,96.46
2018-09-26T03:44:13.541Z,96.46
2018-09-26T03:45:13.522Z,96.26
2018-09-26T03:46:13.501Z,96.36
2018-09-26T03:47:13.477Z,96.36
2018-09-26T03:48:13.454Z,96.74
2018-09-26T03:49:13.435Z,96.26
2018-09-26T03:50:13.561Z,97.41
2018-09-26T03:51:13.391Z,97.31
2018-09-26T03:52:13.371Z,96.55
2018-09-26T03:53:13.347Z,96.55
2018-09-26T03:54:13.326Z,96.65
2018-09-26T03:55:13.304Z,97.31
2018-09-26T03:56:13.290Z,96.65
2018-09-26T03:57:13.261Z,97.13
2018-09-26T03:58:13.246Z,97.31
2018-09-26T03:59:13.221Z,96.55
2018-09-26T04:00:13.199Z,96.94
2018-09-26T04:01:13.174Z,97.22
2018-09-26T04:02:13.160Z,96.94
2018-09-26T04:03:13.134Z,97.03
2018-09-26T04:04:13.109Z,96.55
2018-09-26T04:05:13.091Z,97.41
2018-09-26T04:06:13.069Z,97.13
2018-09-26T04:07:13.045Z,97.41
2018-09-26T04:08:13.024Z,97.22
2018-09-26T04:09:13.005Z,96.94
2018-09-26T04:10:12.984Z,96.74
2018-09-26T04:11:12.960Z,97.13
2018-09-26T04:12:12.935Z,97.13
2018-09-26T04:13:13.040Z,97.50
2018-09-26T04:14:12.902Z,97.60
2018-09-26T04:15:13.021Z,97.31
2018-09-26T04:16:12.851Z,97.31
2018-09-26T04:17:12.829Z,97.50
2018-09-26T04:18:12.859Z,97.31
2018-09-26T04:19:12.789Z,97.60
2018-09-26T04:20:12.811Z,97.60
2018-09-26T04:21:12.744Z,97.79
2018-09-26T04:22:12.724Z,97.69
2018-09-26T04:23:12.781Z,97.79
2018-09-26T04:24:12.677Z,97.60
2018-09-26T04:25:12.657Z,97.41
2018-09-26T04:26:12.884Z,97.69
2018-09-26T04:27:12.779Z,97.41
2018-09-26T04:28:12.593Z,97.60
2018-09-26T04:29:12.591Z,97.22
2018-09-26T04:30:12.588Z,97.69
2018-09-26T04:31:12.533Z,97.98
2018-09-26T04:32:12.513Z,98.27
2018-09-26T04:33:12.687Z,98.36
2018-09-26T04:34:12.473Z,98.46
2018-09-26T04:35:12.442Z,98.74
2018-09-26T04:36:12.420Z,98.65
2018-09-26T04:37:12.403Z,98.55
2018-09-26T04:38:12.377Z,98.74
2018-09-26T04:39:12.355Z,97.98
2018-09-26T04:40:12.336Z,98.27
2018-09-26T04:41:12.321Z,98.08
2018-09-26T04:42:12.307Z,98.17
2018-09-26T04:43:12.286Z,97.98
2018-09-26T04:44:12.247Z,98.27
2018-09-26T04:45:12.239Z,97.50
2018-09-26T04:46:12.207Z,97.60
2018-09-26T04:47:12.188Z,97.60
2018-09-26T04:48:12.290Z,97.22
2018-09-26T04:49:12.143Z,97.13
2018-09-26T04:50:12.119Z,96.74
2018-09-26T04:51:12.098Z,97.13
2018-09-26T04:52:12.075Z,97.13
2018-09-26T04:53:12.066Z,97.03
2018-09-26T04:54:12.057Z,97.50
2018-09-26T04:55:12.020Z,96.74
2018-09-26T04:56:12.001Z,97.50
2018-09-26T04:57:11.969Z,97.31
2018-09-26T04:58:11.959Z,97.31
2018-09-26T04:59:11.924Z,97.31
2018-09-26T05:00:11.913Z,97.03
2018-09-26T05:01:11.884Z,97.13
2018-09-26T05:02:11.860Z,97.03
2018-09-26T05:03:11.840Z,96.84
2018-09-26T05:04:11.817Z,97.03
2018-09-26T05:05:11.796Z,97.03
2018-09-26T05:06:11.774Z,96.74
2018-09-26T05:07:11.816Z,96.46
2018-09-26T05:08:11.748Z,96.65
2018-09-26T05:09:11.713Z,96.36
2018-09-26T05:10:11.695Z,96.65
2018-09-26T05:11:11.667Z,96.46
2018-09-26T05:12:11.648Z,95.98
2018-09-26T05:13:11.626Z,95.89
2018-09-26T05:14:11.602Z,95.89
2018-09-26T05:15:11.585Z,94.84
2018-09-26T05:16:11.561Z,94.93
2018-09-26T05:17:11.540Z,95.22
2018-09-26T05:18:11.652Z,95.03
2018-09-26T05:19:11.498Z,95.79
2018-09-26T05:20:11.485Z,95.08
2018-09-26T05:21:11.512Z,94.89
2018-09-26T05:22:11.433Z,94.89
2018-09-26T05:23:11.478Z,94.70
2018-09-26T05:24:11.403Z,94.60
2018-09-26T05:25:11.374Z,94.32
2018-09-26T05:26:11.350Z,93.94
2018-09-26T05:27:11.329Z,94.08
2018-09-26T05:28:11.307Z,93.84
2018-09-26T05:29:11.282Z,94.03
2018-09-26T05:30:11.290Z,93.46
2018-09-26T05:31:11.261Z,93.74
2018-09-26T05:32:11.227Z,93.65
2018-09-26T05:33:11.203Z,93.37
2018-09-26T05:34:11.195Z,93.18
2018-09-26T05:35:11.157Z,93.27
2018-09-26T05:36:11.141Z,93.84
2018-09-26T05:37:11.116Z,93.94
2018-09-26T05:38:11.093Z,93.18
2018-09-26T05:39:11.074Z,93.84
2018-09-26T05:40:11.055Z,93.94
2018-09-26T05:41:11.032Z,92.03
2018-09-26T05:42:11.015Z,92.03
2018-09-26T05:43:10.997Z,92.03
2018-09-26T05:44:10.964Z,92.22
2018-09-26T05:45:10.946Z,92.03
2018-09-26T05:46:10.926Z,92.13
2018-09-26T05:47:10.901Z,92.13
2018-09-26T05:48:10.882Z,92.22
2018-09-26T05:49:10.860Z,92.22
2018-09-26T05:50:10.937Z,92.32
2018-09-26T05:51:10.816Z,91.94
2018-09-26T05:52:10.802Z,92.03
2018-09-26T05:53:10.776Z,92.22
2018-09-26T05:54:10.761Z,92.22
2018-09-26T05:55:10.731Z,92.13
2018-09-26T05:56:10.713Z,92.13
2018-09-26T05:57:10.690Z,91.84
2018-09-26T05:58:10.679Z,92.51
2018-09-26T05:59:10.678Z,91.94
2018-09-26T06:00:10.626Z,92.03
2018-09-26T06:01:10.605Z,91.37
2018-09-26T06:02:10.583Z,91.56
2018-09-26T06:03:10.563Z,90.99
2018-09-26T06:04:10.539Z,91.08
2018-09-26T06:05:10.521Z,90.70
2018-09-26T06:06:10.499Z,90.89
2018-09-26T06:07:10.488Z,90.70
2018-09-26T06:08:10.456Z,90.51
2018-09-26T06:09:10.444Z,90.32
2018-09-26T06:10:10.467Z,90.51
2018-09-26T06:11:10.392Z,90.32
2018-09-26T06:12:10.377Z,89.65
2018-09-26T06:13:10.366Z,89.65
2018-09-26T06:14:10.337Z,89.84
2018-09-26T06:15:10.309Z,89.75
2018-09-26T06:16:10.290Z,90.13
2018-09-26T06:17:10.265Z,89.27
2018-09-26T06:18:10.245Z,89.27
2018-09-26T06:19:10.226Z,89.65
2018-09-26T06:20:10.202Z,89.18
2018-09-26T06:21:10.182Z,89.47
2018-09-26T06:22:10.160Z,89.27
2018-09-26T06:23:10.144Z,88.99
2018-09-26T06:24:10.121Z,89.18
2018-09-26T06:25:10.101Z,89.13
2018-09-26T06:26:10.080Z,89.51
2018-09-26T06:27:10.060Z,88.93
2018-09-26T06:28:10.044Z,89.03
2018-09-26T06:29:10.013Z,88.84
2018-09-26T06:30:09.995Z,88.18
2018-09-26T06:31:09.974Z,88.18
2018-09-26T06:32:09.962Z,87.98
2018-09-26T06:33:09.938Z,87.70
2018-09-26T06:34:09.925Z,87.70
2018-09-26T06:35:09.919Z,87.60
2018-09-26T06:36:09.868Z,88.37
2018-09-26T06:37:09.854Z,87.41
2018-09-26T06:38:09.878Z,88.46
2018-09-26T06:39:09.818Z,87.51
2018-09-26T06:40:09.798Z,87.89
2018-09-26T06:41:09.772Z,87.23
2018-09-26T06:42:09.741Z,87.51
2018-09-26T06:43:09.722Z,87.03
2018-09-26T06:44:09.702Z,87.03
2018-09-26T06:45:09.681Z,87.03
2018-09-26T06:46:09.666Z,86.84
2018-09-26T06:47:09.642Z,86.84
2018-09-26T06:48:09.631Z,86.98
2018-09-26T06:49:09.608Z,86.79
2018-09-26T06:50:09.586Z,86.69
2018-09-26T06:51:09.559Z,86.22
2018-09-26T06:52:09.540Z,86.41
2018-09-26T06:53:09.519Z,86.98
2018-09-26T06:54:09.615Z,87.27
2018-09-26T06:55:09.486Z,86.60
2018-09-26T06:56:09.473Z,86.22
2018-09-26T06:57:09.445Z,86.51
2018-09-26T06:58:09.420Z,85.93
2018-09-26T06:59:09.398Z,85.17
2018-09-26T07:00:09.427Z,85.17
2018-09-26T07:01:09.355Z,85.08
2018-09-26T07:02:09.369Z,85.08
2018-09-26T07:03:09.318Z,84.98
2018-09-26T07:04:09.300Z,84.98
2018-09-26T07:05:09.384Z,85.55
2018-09-26T07:06:09.260Z,85.64
2018-09-26T07:07:09.244Z,85.36
2018-09-26T07:08:09.219Z,85.84
2018-09-26T07:09:09.198Z,85.46
2018-09-26T07:10:09.200Z,85.64
2018-09-26T07:11:09.158Z,85.55
2018-09-26T07:12:09.183Z,85.36
2018-09-26T07:13:09.118Z,85.17
2018-09-26T07:14:09.100Z,84.50
2018-09-26T07:15:09.079Z,84.41
2018-09-26T07:16:09.057Z,84.60
2018-09-26T07:17:09.040Z,84.69
2018-09-26T07:18:09.030Z,84.60
2018-09-26T07:19:09.000Z,84.55
2018-09-26T07:20:08.985Z,84.36
2018-09-26T07:21:08.968Z,84.45
2018-09-26T07:22:08.942Z,84.12
2018-09-26T07:23:08.926Z,83.36
2018-09-26T07:24:09.024Z,84.55
2018-09-26T07:25:08.883Z,84.16
2018-09-26T07:26:08.865Z,83.88
2018-09-26T07:27:08.853Z,83.69
2018-09-26T07:28:08.824Z,83.50
2018-09-26T07:29:08.812Z,83.50
2018-09-26T07:30:08.800Z,83.69
2018-09-26T07:31:08.773Z,83.21
2018-09-26T07:32:08.798Z,83.31
2018-09-26T07:33:08.733Z,83.40
2018-09-26T07:34:08.710Z,82.92
2018-09-26T07:35:08.699Z,83.02
2018-09-26T07:36:08.684Z,83.40
2018-09-26T07:37:08.653Z,83.02
2018-09-26T07:38:08.633Z,82.64
2018-09-26T07:39:08.623Z,82.64
2018-09-26T07:40:08.595Z,82.54
2018-09-26T07:41:08.582Z,82.35
2018-09-26T07:42:08.558Z,82.73
2018-09-26T07:43:08.535Z,82.54
2018-09-26T07:44:08.525Z,82.87
2018-09-26T07:45:08.507Z,81.97
2018-09-26T07:46:08.483Z,81.82
2018-09-26T07:47:08.460Z,81.92
2018-09-26T07:48:08.449Z,81.35
2018-09-26T07:49:08.422Z,81.63
2018-09-26T07:50:08.407Z,81.25
2018-09-26T07:51:08.386Z,81.35
2018-09-26T07:52:08.365Z,80.77
2018-09-26T07:53:08.384Z,81.35
2018-09-26T07:54:08.339Z,80.96
2018-09-26T07:55:08.328Z,80.96
2018-09-26T07:56:08.296Z,80.87
2018-09-26T07:57:08.279Z,81.06
2018-09-26T07:58:08.252Z,81.25
2018-09-26T07:59:08.294Z,80.77
2018-09-26T08:00:08.226Z,80.30
2018-09-26T08:01:08.197Z,79.72
2018-09-26T08:02:08.179Z,79.53
2018-09-26T08:03:08.157Z,79.44
2018-09-26T08:04:08.140Z,79.44
2018-09-26T08:05:08.124Z,79.06
2018-09-26T08:06:08.106Z,79.06
2018-09-26T08:07:08.104Z,79.25
2018-09-26T08:08:08.070Z,79.35
2018-09-26T08:09:08.051Z,79.06
2018-09-26T08:10:08.030Z,78.77
2018-09-26T08:11:08.031Z,79.19
2018-09-26T08:12:07.994Z,79.19
2018-09-26T08:13:07.975Z,78.91
2018-09-26T08:14:07.958Z,78.52
2018-09-26T08:15:07.950Z,78.05
2018-09-26T08:16:07.977Z,78.52
2018-09-26T08:17:07.905Z,78.23
2018-09-26T08:18:07.915Z,77.38
2018-09-26T08:19:07.888Z,77.76
2018-09-26T08:20:07.854Z,77.95
2018-09-26T08:21:07.839Z,78.05
2018-09-26T08:22:07.812Z,77.80
2018-09-26T08:23:07.794Z,77.32
2018-09-26T08:24:07.931Z,76.75
2018-09-26T08:25:07.759Z,76.71
2018-09-26T08:26:07.752Z,76.46
2018-09-26T08:27:07.786Z,76.65
2018-09-26T08:28:07.712Z,76.46
2018-09-26T08:29:07.686Z,76.37
2018-09-26T08:30:07.683Z,76.37
2018-09-26T08:31:07.658Z,76.56
2018-09-26T08:32:07.639Z,76.18
2018-09-26T08:33:07.614Z,76.37
2018-09-26T08:34:07.599Z,76.75
2018-09-26T08:35:07.584Z,76.75
2018-09-26T08:36:07.570Z,76.27
2018-09-26T08:37:07.549Z,76.46
2018-09-26T08:38:07.526Z,76.46
2018-09-26T08:39:07.511Z,76.08
2018-09-26T08:40:07.497Z,76.40
2018-09-26T08:41:07.477Z,74.78
2018-09-26T08:42:07.465Z,74.88
2018-09-26T08:43:07.460Z,75.54
2018-09-26T08:44:07.419Z,75.54
2018-09-26T08:45:07.405Z,74.69
2018-09-26T08:46:07.418Z,74.88
2018-09-26T08:47:07.377Z,74.69
2018-09-26T08:48:07.352Z,74.11
2018-09-26T08:49:07.386Z,73.83
2018-09-26T08:50:07.324Z,74.24
2018-09-26T08:51:07.307Z,73.83
2018-09-26T08:52:07.291Z,73.77
2018-09-26T08:53:07.262Z,73.10
2018-09-26T08:54:07.249Z,72.91
2018-09-26T08:55:07.232Z,72.37
2018-09-26T08:56:07.211Z,71.70
2018-09-26T08:57:07.195Z,71.03
2018-09-26T08:58:07.180Z,70.94
2018-09-26T08:59:07.161Z,70.56
2018-09-26T09:00:07.147Z,70.94
2018-09-26T09:01:07.131Z,70.75
2018-09-26T09:02:07.112Z,70.75
2018-09-26T09:03:07.105Z,70.84
2018-09-26T09:04:07.083Z,69.50
2018-09-26T09:05:07.115Z,69.21
2018-09-26T09:06:07.060Z,69.60
2018-09-26T09:07:07.025Z,69.21
2018-09-26T09:08:07.022Z,69.35
2018-09-26T09:09:07.002Z,68.68
2018-09-26T09:10:06.980Z,68.20
2018-09-26T09:11:06.965Z,68.68
2018-09-26T09:12:06.956Z,68.49
2018-09-26T09:13:07.003Z,68.29
2018-09-26T09:14:06.924Z,68.49
2018-09-26T09:15:06.898Z,68.77
2018-09-26T09:16:06.912Z,68.39
2018-09-26T09:17:06.866Z,68.01
2018-09-26T09:18:06.858Z,68.10
2018-09-26T09:19:06.834Z,68.39
2018-09-26T09:20:06.820Z,68.87
2018-09-26T09:21:06.804Z,68.29
2018-09-26T09:22:06.794Z,68.01
2018-09-26T09:23:06.778Z,68.13
2018-09-26T09:24:06.765Z,67.14
2018-09-26T09:25:06.740Z,66.86
2018-09-26T09:26:06.761Z,67.24
2018-09-26T09:27:06.765Z,67.47
2018-09-26T09:28:06.702Z,67.47
2018-09-26T09:29:06.681Z,67.47
2018-09-26T09:30:06.666Z,66.70
2018-09-26T09:31:06.662Z,66.51
2018-09-26T09:32:06.707Z,66.03
2018-09-26T09:33:06.619Z,66.70
2018-09-26T09:34:06.603Z,65.84
2018-09-26T09:35:06.638Z,65.94
2018-09-26T09:36:06.577Z,65.84
2018-09-26T09:37:06.557Z,65.39
2018-09-26T09:38:06.568Z,65.30
2018-09-26T09:39:06.530Z,65.20
2018-09-26T09:40:06.512Z,66.16
2018-09-26T09:41:06.516Z,65.68
2018-09-26T09:42:06.482Z,65.20
2018-09-26T09:43:06.470Z,65.97
2018-09-26T09:44:06.590Z,66.16
2018-09-26T09:45:06.440Z,65.88
2018-09-26T09:46:06.426Z,65.20
2018-09-26T09:47:06.410Z,65.49
2018-09-26T09:48:06.580Z,64.56
2018-09-26T09:49:06.394Z,64.92
2018-09-26T09:50:06.375Z,65.01
2018-09-26T09:51:06.515Z,64.85
2018-09-26T09:52:06.336Z,64.95
2018-09-26T09:53:06.324Z,65.05
2018-09-26T09:54:06.312Z,64.28
2018-09-26T09:55:06.349Z,64.37
2018-09-26T09:56:06.299Z,63.35
2018-09-26T09:57:06.267Z,62.10
2018-09-26T09:58:06.253Z,62.39
2018-09-26T09:59:06.239Z,62.20
2018-09-26T10:00:06.222Z,60.86
2018-09-26T10:01:06.213Z,60.12
2018-09-26T10:02:06.248Z,60.12
2018-09-26T10:03:06.338Z,59.36
2018-09-26T10:04:06.165Z,59.77
2018-09-26T10:05:06.152Z,58.97
2018-09-26T10:06:06.138Z,59.93
2018-09-26T10:07:06.125Z,59.83
2018-09-26T10:08:06.126Z,60.12
2018-09-26T10:09:06.101Z,59.64
2018-09-26T10:10:06.090Z,59.45
2018-09-26T10:11:06.074Z,59.93
2018-09-26T10:12:06.058Z,60.31
2018-09-26T10:13:06.046Z,59.64
2018-09-26T10:14:06.093Z,59.93
2018-09-26T10:15:06.027Z,60.09
2018-09-26T10:16:06.006Z,60.19
2018-09-26T10:17:05.993Z,60.41
2018-09-26T10:18:05.997Z,60.22
2018-09-26T10:19:05.969Z,60.03
2018-09-26T10:20:05.999Z,59.23
2018-09-26T10:21:05.940Z,60.19
2018-09-26T10:22:05.925Z,60.28
2018-09-26T10:23:05.924Z,60.50
2018-09-26T10:24:05.906Z,61.27
2018-09-26T10:25:05.939Z,59.83
2018-09-26T10:26:05.927Z,60.35
2018-09-26T10:27:05.862Z,59.77
2018-09-26T10:28:05.854Z,59.38
2018-09-26T10:29:05.834Z,59.29
2018-09-26T10:30:05.826Z,59.38
2018-09-26T10:31:05.989Z,59.29
2018-09-26T10:32:05.828Z,58.36
2018-09-26T10:33:05.789Z,57.50
2018-09-26T10:34:05.769Z,57.11
2018-09-26T10:35:05.822Z,56.24
2018-09-26T10:36:05.752Z,56.44
2018-09-26T10:37:05.734Z,56.27
2018-09-26T10:38:05.747Z,56.08
2018-09-26T10:39:05.708Z,55.41
2018-09-26T10:40:05.694Z,55.15
2018-09-26T10:41:05.696Z,55.15
2018-09-26T10:42:05.672Z,54.38
2018-09-26T10:43:05.655Z,54.28
2018-09-26T10:44:05.710Z,53.97
2018-09-26T10:45:05.639Z,55.51
2018-09-26T10:46:05.618Z,55.69
2018-09-26T10:47:05.604Z,55.12
2018-09-26T10:48:05.600Z,55.41
2018-09-26T10:49:05.581Z,55.63
2018-09-26T10:50:05.594Z,54.22
2018-09-26T10:51:05.568Z,53.74
2018-09-26T10:52:05.546Z,53.35
2018-09-26T10:53:05.535Z,53.06
2018-09-26T10:54:05.528Z,53.45
2018-09-26T10:55:05.534Z,53.06
2018-09-26T10:56:05.553Z,52.58
2018-09-26T10:57:05.484Z,51.81
2018-09-26T10:58:05.536Z,51.62
2018-09-26T10:59:05.459Z,51.79
2018-09-26T11:00:05.463Z,52.36
2018-09-26T11:01:05.453Z,53.13
2018-09-26T11:02:05.499Z,52.46
2018-09-26T11:03:05.417Z,52.36
2018-09-26T11:04:05.424Z,52.87
2018-09-26T11:05:05.397Z,52.00
2018-09-26T11:06:05.385Z,51.74
2018-09-26T11:07:05.371Z,51.64
2018-09-26T11:08:05.414Z,51.72
2018-09-26T11:09:05.345Z,52.10
2018-09-26T11:10:05.374Z,52.29
2018-09-26T11:11:05.328Z,52.61
2018-09-26T11:12:05.308Z,50.95
2018-09-26T11:13:05.303Z,51.43
2018-09-26T11:14:05.485Z,51.07
2018-09-26T11:15:05.292Z,51.09
2018-09-26T11:16:05.299Z,49.46
2018-09-26T11:17:05.254Z,48.90
2018-09-26T11:18:05.244Z,48.52
2018-09-26T11:19:05.226Z,48.59
2018-09-26T11:20:05.227Z,49.27
2018-09-26T11:21:05.262Z,49.72
2018-09-26T11:22:05.196Z,50.20
2018-09-26T11:23:05.182Z,50.30
2018-09-26T11:24:05.164Z,50.42
2018-09-26T11:25:05.154Z,50.04
2018-09-26T11:26:05.157Z,49.38
2018-09-26T11:27:05.134Z,49.00
2018-09-26T11:28:05.124Z,48.23
2018-09-26T11:29:05.111Z,48.03
2018-09-26T11:30:05.127Z,47.94
2018-09-26T11:31:05.098Z,48.23
2018-09-26T11:32:05.091Z,48.88
2018-09-26T11:33:05.065Z,49.00
2018-09-26T11:34:05.051Z,48.44
2018-09-26T11:35:05.048Z,47.19
2018-09-26T11:36:05.030Z,47.10
2018-09-26T11:37:05.034Z,47.10
2018-09-26T11:38:05.004Z,47.27
2018-09-26T11:39:04.994Z,48.03
2018-09-26T11:40:04.995Z,47.63
2018-09-26T11:41:04.978Z,48.57
2018-09-26T11:42:04.957Z,49.15
2018-09-26T11:43:04.946Z,49.43
2018-09-26T11:44:04.990Z,49.15
2018-09-26T11:45:04.933Z,49.91
2018-09-26T11:46:04.964Z,49.46
2018-09-26T11:47:04.915Z,49.07
2018-09-26T11:48:04.896Z,48.88
2018-09-26T11:49:04.872Z,48.03
2018-09-26T11:50:04.870Z,47.53
2018-09-26T11:51:04.852Z,46.95
2018-09-26T11:52:04.838Z,47.92
2018-09-26T11:53:04.823Z,47.46
2018-09-26T11:54:04.821Z,47.63
2018-09-26T11:55:04.798Z,47.44
2018-09-26T11:56:04.890Z,47.46
2018-09-26T11:57:04.775Z,47.27
2018-09-26T11:58:04.798Z,47.27
2018-09-26T11:59:04.756Z,47.46
2018-09-26T12:00:04.742Z,47.17
2018-09-26T12:01:04.722Z,47.75
2018-09-26T12:02:04.815Z,47.56
2018-09-26T12:03:04.695Z,47.17
2018-09-26T12:04:04.689Z,47.63
2018-09-26T12:05:04.670Z,47.72
2018-09-26T12:06:04.701Z,48.21
2018-09-26T12:07:04.727Z,48.16
2018-09-26T12:08:04.700Z,47.49
2018-09-26T12:09:04.621Z,47.00
2018-09-26T12:10:04.736Z,45.56
2018-09-26T12:11:04.591Z,46.88
2018-09-26T12:12:04.599Z,46.78
2018-09-26T12:13:04.655Z,47.44
2018-09-26T12:14:04.555Z,48.69
2018-09-26T12:15:04.560Z,48.85
2018-09-26T12:16:04.585Z,49.24
2018-09-26T12:17:04.509Z,49.15
2018-09-26T12:18:04.504Z,49.12
2018-09-26T12:19:04.512Z,49.67
2018-09-26T12:20:04.507Z,50.25
2018-09-26T12:21:04.452Z,50.05
2018-09-26T12:22:04.544Z,49.96
2018-09-26T12:23:04.445Z,50.44
2018-09-26T12:24:04.430Z,49.84
2018-09-26T12:25:04.412Z,50.32
2018-09-26T12:26:04.385Z,49.93
2018-09-26T12:27:04.370Z,50.13
2018-09-26T12:28:04.397Z,50.03
2018-09-26T12:29:04.341Z,50.80
2018-09-26T12:30:04.360Z,51.50
2018-09-26T12:31:04.322Z,50.34
2018-09-26T12:32:04.300Z,49.93
2018-09-26T12:33:04.290Z,50.82
2018-09-26T12:34:04.273Z,50.44
2018-09-26T12:37:31.139Z,51.57
2018-09-26T12:38:31.138Z,51.18
2018-09-26T12:39:31.117Z,51.09
2018-09-26T12:40:31.100Z,51.09
2018-09-26T12:41:31.143Z,51.02
2018-09-26T12:42:31.107Z,51.59
2018-09-26T12:43:31.049Z,51.79
2018-09-26T12:44:31.049Z,51.31
2018-09-26T12:45:31.019Z,51.40
2018-09-26T12:46:31.004Z,51.50
2018-09-26T12:47:30.989Z,51.79
2018-09-26T12:48:31.029Z,51.59
2018-09-26T12:49:30.958Z,51.02
2018-09-26T12:50:30.949Z,51.02
2018-09-26T12:51:30.937Z,51.69
2018-09-26T12:52:30.926Z,51.31
2018-09-26T12:53:31.016Z,51.43
2018-09-26T12:54:30.893Z,50.82